TMW weather

Tamworth Airport
Tamworth, New South Wales, Australia

Public forecast

Using degrees Celsius for public forecast. Weather courtesy of forecast.io.

Current aviation weather report (METAR) for Tamworth Airport

Retrieved 2020/02/22 05:30 UTC (18 minutes ago):

YSTW 220530Z AUTO 09013KT 9999 // NCD 26/15 Q1019 RF000/0000

Aviation forecast (TAF) for Tamworth Airport

Retrieved 2020-02-22 00:36 UTC (5 hours ago):

TAF TAF YSTW 212328Z 2200/2218 10012KT 9999 -SHRA BKN060 FM221000 14010KT 9999 NSW SCT060 PROB30 INTER 2202/2211 VRB25G40KT 2000 TSRA BKN015 FEW050CB